sensor_id;sensor_type;location;lat;lon;timestamp;P1;durP1;ratioP1;P2;durP2;ratioP2
48526;SDS011;34317;51.660;5.824;2023-04-24T00:01:10;5.55;;;3.80;;
48526;SDS011;34317;51.660;5.824;2023-04-24T00:03:39;5.00;;;3.83;;
48526;SDS011;34317;51.660;5.824;2023-04-24T00:06:07;5.25;;;3.67;;
48526;SDS011;34317;51.660;5.824;2023-04-24T00:08:35;4.32;;;3.55;;
48526;SDS011;34317;51.660;5.824;2023-04-24T00:11:02;5.88;;;4.03;;
48526;SDS011;34317;51.660;5.824;2023-04-24T00:13:30;5.85;;;4.45;;
48526;SDS011;34317;51.660;5.824;2023-04-24T00:15:57;6.25;;;4.35;;
48526;SDS011;34317;51.660;5.824;2023-04-24T00:18:24;5.57;;;4.78;;
48526;SDS011;34317;51.660;5.824;2023-04-24T00:20:51;5.95;;;4.93;;
48526;SDS011;34317;51.660;5.824;2023-04-24T00:23:18;8.15;;;5.55;;
48526;SDS011;34317;51.660;5.824;2023-04-24T00:25:46;8.27;;;6.00;;
48526;SDS011;34317;51.660;5.824;2023-04-24T00:28:13;7.90;;;5.93;;
48526;SDS011;34317;51.660;5.824;2023-04-24T00:30:40;8.57;;;6.38;;
48526;SDS011;34317;51.660;5.824;2023-04-24T00:33:07;9.65;;;6.30;;
48526;SDS011;34317;51.660;5.824;2023-04-24T00:35:34;9.68;;;6.20;;
48526;SDS011;34317;51.660;5.824;2023-04-24T00:38:02;10.68;;;6.60;;
48526;SDS011;34317;51.660;5.824;2023-04-24T00:40:29;8.98;;;6.22;;
48526;SDS011;34317;51.660;5.824;2023-04-24T00:42:56;11.65;;;7.22;;
48526;SDS011;34317;51.660;5.824;2023-04-24T00:45:24;12.32;;;7.47;;
48526;SDS011;34317;51.660;5.824;2023-04-24T00:47:52;11.70;;;7.55;;
48526;SDS011;34317;51.660;5.824;2023-04-24T00:50:20;15.50;;;8.45;;
48526;SDS011;34317;51.660;5.824;2023-04-24T00:52:48;13.98;;;7.97;;
48526;SDS011;34317;51.660;5.824;2023-04-24T00:55:15;12.68;;;8.65;;
48526;SDS011;34317;51.660;5.824;2023-04-24T00:57:43;13.70;;;8.32;;
48526;SDS011;34317;51.660;5.824;2023-04-24T01:00:12;15.10;;;9.35;;
48526;SDS011;34317;51.660;5.824;2023-04-24T01:02:42;13.27;;;9.05;;
48526;SDS011;34317;51.660;5.824;2023-04-24T01:05:13;14.68;;;9.02;;
48526;SDS011;34317;51.660;5.824;2023-04-24T01:07:43;12.80;;;8.75;;
48526;SDS011;34317;51.660;5.824;2023-04-24T01:10:13;14.85;;;10.10;;
48526;SDS011;34317;51.660;5.824;2023-04-24T01:12:40;14.05;;;9.65;;
48526;SDS011;34317;51.660;5.824;2023-04-24T01:15:08;17.35;;;10.23;;
48526;SDS011;34317;51.660;5.824;2023-04-24T01:17:35;13.77;;;9.60;;
48526;SDS011;34317;51.660;5.824;2023-04-24T01:20:03;17.75;;;10.35;;
48526;SDS011;34317;51.660;5.824;2023-04-24T01:22:33;17.02;;;9.90;;
48526;SDS011;34317;51.660;5.824;2023-04-24T01:25:01;15.07;;;9.65;;
48526;SDS011;34317;51.660;5.824;2023-04-24T01:27:29;18.67;;;10.05;;
48526;SDS011;34317;51.660;5.824;2023-04-24T01:29:57;15.85;;;10.20;;
48526;SDS011;34317;51.660;5.824;2023-04-24T01:32:25;14.68;;;9.85;;
48526;SDS011;34317;51.660;5.824;2023-04-24T01:34:52;18.17;;;10.70;;
48526;SDS011;34317;51.660;5.824;2023-04-24T01:37:20;15.07;;;10.57;;
48526;SDS011;34317;51.660;5.824;2023-04-24T01:39:48;14.50;;;10.30;;
48526;SDS011;34317;51.660;5.824;2023-04-24T01:42:18;16.73;;;10.95;;
48526;SDS011;34317;51.660;5.824;2023-04-24T01:44:46;20.65;;;11.25;;
48526;SDS011;34317;51.660;5.824;2023-04-24T01:47:13;19.70;;;11.77;;
48526;SDS011;34317;51.660;5.824;2023-04-24T01:49:41;18.02;;;11.77;;
48526;SDS011;34317;51.660;5.824;2023-04-24T01:52:08;15.80;;;11.00;;
48526;SDS011;34317;51.660;5.824;2023-04-24T01:54:35;17.40;;;11.35;;
48526;SDS011;34317;51.660;5.824;2023-04-24T01:57:02;20.98;;;11.60;;
48526;SDS011;34317;51.660;5.824;2023-04-24T01:59:30;16.52;;;11.48;;
48526;SDS011;34317;51.660;5.824;2023-04-24T02:02:00;17.85;;;11.40;;
48526;SDS011;34317;51.660;5.824;2023-04-24T02:04:27;18.08;;;11.23;;
48526;SDS011;34317;51.660;5.824;2023-04-24T02:06:54;18.08;;;11.73;;
48526;SDS011;34317;51.660;5.824;2023-04-24T02:09:21;17.15;;;11.85;;
48526;SDS011;34317;51.660;5.824;2023-04-24T02:11:50;19.50;;;12.27;;
48526;SDS011;34317;51.660;5.824;2023-04-24T02:14:17;21.58;;;12.93;;
48526;SDS011;34317;51.660;5.824;2023-04-24T02:16:44;20.45;;;13.93;;
48526;SDS011;34317;51.660;5.824;2023-04-24T02:19:12;21.13;;;14.15;;
48526;SDS011;34317;51.660;5.824;2023-04-24T02:21:39;24.67;;;13.82;;
48526;SDS011;34317;51.660;5.824;2023-04-24T02:24:08;22.42;;;14.20;;
48526;SDS011;34317;51.660;5.824;2023-04-24T02:26:35;23.25;;;15.23;;
48526;SDS011;34317;51.660;5.824;2023-04-24T02:29:02;21.42;;;14.63;;
48526;SDS011;34317;51.660;5.824;2023-04-24T02:31:29;23.00;;;15.25;;
48526;SDS011;34317;51.660;5.824;2023-04-24T02:33:56;25.30;;;15.50;;
48526;SDS011;34317;51.660;5.824;2023-04-24T02:36:23;25.00;;;15.82;;
48526;SDS011;34317;51.660;5.824;2023-04-24T02:38:51;23.73;;;15.80;;
48526;SDS011;34317;51.660;5.824;2023-04-24T02:41:18;22.67;;;15.48;;
48526;SDS011;34317;51.660;5.824;2023-04-24T02:43:47;27.40;;;15.55;;
48526;SDS011;34317;51.660;5.824;2023-04-24T02:46:14;24.75;;;16.50;;
48526;SDS011;34317;51.660;5.824;2023-04-24T02:48:41;25.02;;;15.70;;
48526;SDS011;34317;51.660;5.824;2023-04-24T02:51:09;24.85;;;14.68;;
48526;SDS011;34317;51.660;5.824;2023-04-24T02:53:36;21.55;;;15.05;;
48526;SDS011;34317;51.660;5.824;2023-04-24T02:56:03;26.15;;;15.40;;
48526;SDS011;34317;51.660;5.824;2023-04-24T02:58:31;23.17;;;15.45;;
48526;SDS011;34317;51.660;5.824;2023-04-24T03:00:58;23.33;;;15.73;;
48526;SDS011;34317;51.660;5.824;2023-04-24T03:03:25;24.42;;;15.00;;
48526;SDS011;34317;51.660;5.824;2023-04-24T03:05:53;25.98;;;16.25;;
48526;SDS011;34317;51.660;5.824;2023-04-24T03:08:20;23.95;;;15.48;;
48526;SDS011;34317;51.660;5.824;2023-04-24T03:10:48;22.60;;;15.60;;
48526;SDS011;34317;51.660;5.824;2023-04-24T03:13:15;22.83;;;14.50;;
48526;SDS011;34317;51.660;5.824;2023-04-24T03:15:43;24.45;;;15.20;;
48526;SDS011;34317;51.660;5.824;2023-04-24T03:18:11;21.83;;;15.25;;
48526;SDS011;34317;51.660;5.824;2023-04-24T03:20:39;24.27;;;16.02;;
48526;SDS011;34317;51.660;5.824;2023-04-24T03:23:07;21.63;;;14.20;;
48526;SDS011;34317;51.660;5.824;2023-04-24T03:25:35;20.88;;;14.40;;
48526;SDS011;34317;51.660;5.824;2023-04-24T03:28:03;21.33;;;14.52;;
48526;SDS011;34317;51.660;5.824;2023-04-24T03:33:07;22.70;;;13.55;;
48526;SDS011;34317;51.660;5.824;2023-04-24T03:35:38;22.70;;;15.00;;
48526;SDS011;34317;51.660;5.824;2023-04-24T03:38:09;21.80;;;14.65;;
48526;SDS011;34317;51.660;5.824;2023-04-24T03:40:55;22.65;;;13.52;;
48526;SDS011;34317;51.660;5.824;2023-04-24T03:43:38;21.15;;;14.90;;
48526;SDS011;34317;51.660;5.824;2023-04-24T03:46:06;21.65;;;15.00;;
48526;SDS011;34317;51.660;5.824;2023-04-24T03:48:41;24.07;;;14.40;;
48526;SDS011;34317;51.660;5.824;2023-04-24T03:51:09;24.88;;;14.57;;
48526;SDS011;34317;51.660;5.824;2023-04-24T03:53:39;21.85;;;14.00;;
48526;SDS011;34317;51.660;5.824;2023-04-24T03:56:07;19.88;;;13.48;;
48526;SDS011;34317;51.660;5.824;2023-04-24T03:58:34;24.27;;;14.10;;
48526;SDS011;34317;51.660;5.824;2023-04-24T04:01:02;23.02;;;14.07;;
48526;SDS011;34317;51.660;5.824;2023-04-24T04:03:44;22.00;;;13.25;;
48526;SDS011;34317;51.660;5.824;2023-04-24T04:06:13;19.27;;;12.93;;
48526;SDS011;34317;51.660;5.824;2023-04-24T04:08:41;21.95;;;12.52;;
48526;SDS011;34317;51.660;5.824;2023-04-24T04:11:08;18.73;;;12.75;;
48526;SDS011;34317;51.660;5.824;2023-04-24T04:13:35;20.05;;;12.27;;
48526;SDS011;34317;51.660;5.824;2023-04-24T04:16:03;20.73;;;12.30;;
48526;SDS011;34317;51.660;5.824;2023-04-24T04:18:31;17.55;;;11.95;;
48526;SDS011;34317;51.660;5.824;2023-04-24T04:20:58;19.77;;;11.90;;
48526;SDS011;34317;51.660;5.824;2023-04-24T04:23:25;19.17;;;11.23;;
48526;SDS011;34317;51.660;5.824;2023-04-24T04:26:04;16.70;;;11.30;;
48526;SDS011;34317;51.660;5.824;2023-04-24T04:28:55;17.58;;;11.40;;
48526;SDS011;34317;51.660;5.824;2023-04-24T04:31:23;17.63;;;11.50;;
48526;SDS011;34317;51.660;5.824;2023-04-24T04:33:50;18.00;;;10.93;;
48526;SDS011;34317;51.660;5.824;2023-04-24T04:36:17;14.60;;;10.38;;
48526;SDS011;34317;51.660;5.824;2023-04-24T04:38:50;17.00;;;11.10;;
48526;SDS011;34317;51.660;5.824;2023-04-24T04:41:39;14.82;;;10.30;;
48526;SDS011;34317;51.660;5.824;2023-04-24T04:44:08;16.25;;;9.75;;
48526;SDS011;34317;51.660;5.824;2023-04-24T04:46:36;15.75;;;10.00;;
48526;SDS011;34317;51.660;5.824;2023-04-24T04:49:16;16.00;;;9.75;;
48526;SDS011;34317;51.660;5.824;2023-04-24T04:51:44;14.00;;;9.52;;
48526;SDS011;34317;51.660;5.824;2023-04-24T04:54:12;16.13;;;9.77;;
48526;SDS011;34317;51.660;5.824;2023-04-24T04:56:41;16.27;;;9.70;;
48526;SDS011;34317;51.660;5.824;2023-04-24T04:59:08;13.55;;;8.85;;
48526;SDS011;34317;51.660;5.824;2023-04-24T05:01:38;13.52;;;9.20;;
48526;SDS011;34317;51.660;5.824;2023-04-24T05:04:07;15.93;;;8.90;;
48526;SDS011;34317;51.660;5.824;2023-04-24T05:06:34;11.93;;;8.63;;
48526;SDS011;34317;51.660;5.824;2023-04-24T05:09:01;13.63;;;8.93;;
48526;SDS011;34317;51.660;5.824;2023-04-24T05:11:39;11.65;;;8.82;;
48526;SDS011;34317;51.660;5.824;2023-04-24T05:14:07;14.00;;;9.00;;
48526;SDS011;34317;51.660;5.824;2023-04-24T05:16:39;10.38;;;8.30;;
48526;SDS011;34317;51.660;5.824;2023-04-24T05:19:08;11.35;;;8.40;;
48526;SDS011;34317;51.660;5.824;2023-04-24T05:21:40;10.30;;;7.82;;
48526;SDS011;34317;51.660;5.824;2023-04-24T05:24:08;9.32;;;7.78;;
48526;SDS011;34317;51.660;5.824;2023-04-24T05:26:54;10.77;;;7.90;;
48526;SDS011;34317;51.660;5.824;2023-04-24T05:29:27;11.18;;;7.75;;
48526;SDS011;34317;51.660;5.824;2023-04-24T05:31:54;10.27;;;7.75;;
48526;SDS011;34317;51.660;5.824;2023-04-24T05:34:23;10.38;;;6.40;;
48526;SDS011;34317;51.660;5.824;2023-04-24T05:36:54;8.93;;;6.82;;
48526;SDS011;34317;51.660;5.824;2023-04-24T05:39:21;12.55;;;7.35;;
48526;SDS011;34317;51.660;5.824;2023-04-24T05:41:49;9.40;;;6.75;;
48526;SDS011;34317;51.660;5.824;2023-04-24T05:44:16;10.10;;;6.95;;
48526;SDS011;34317;51.660;5.824;2023-04-24T05:46:43;9.68;;;6.97;;
48526;SDS011;34317;51.660;5.824;2023-04-24T05:49:11;8.38;;;6.13;;
48526;SDS011;34317;51.660;5.824;2023-04-24T05:51:39;9.40;;;6.53;;
48526;SDS011;34317;51.660;5.824;2023-04-24T05:54:06;10.40;;;6.65;;
48526;SDS011;34317;51.660;5.824;2023-04-24T05:56:34;9.10;;;6.60;;
48526;SDS011;34317;51.660;5.824;2023-04-24T05:59:03;7.68;;;6.20;;
48526;SDS011;34317;51.660;5.824;2023-04-24T06:01:31;8.35;;;5.80;;
48526;SDS011;34317;51.660;5.824;2023-04-24T06:04:07;7.05;;;5.82;;
48526;SDS011;34317;51.660;5.824;2023-04-24T06:07:24;8.70;;;6.43;;
48526;SDS011;34317;51.660;5.824;2023-04-24T06:10:53;8.15;;;5.85;;
48526;SDS011;34317;51.660;5.824;2023-04-24T06:13:22;8.85;;;6.07;;
48526;SDS011;34317;51.660;5.824;2023-04-24T06:16:12;8.75;;;6.35;;
48526;SDS011;34317;51.660;5.824;2023-04-24T06:18:43;8.15;;;6.03;;
48526;SDS011;34317;51.660;5.824;2023-04-24T06:21:10;7.80;;;5.60;;
48526;SDS011;34317;51.660;5.824;2023-04-24T06:23:37;8.02;;;4.55;;
48526;SDS011;34317;51.660;5.824;2023-04-24T06:26:05;4.53;;;3.80;;
48526;SDS011;34317;51.660;5.824;2023-04-24T06:28:32;4.50;;;3.42;;
48526;SDS011;34317;51.660;5.824;2023-04-24T06:30:59;7.45;;;4.00;;
48526;SDS011;34317;51.660;5.824;2023-04-24T06:33:26;4.40;;;3.17;;
48526;SDS011;34317;51.660;5.824;2023-04-24T06:35:53;4.75;;;3.10;;
48526;SDS011;34317;51.660;5.824;2023-04-24T06:38:20;3.70;;;2.63;;
48526;SDS011;34317;51.660;5.824;2023-04-24T06:40:48;2.72;;;2.25;;
48526;SDS011;34317;51.660;5.824;2023-04-24T06:43:15;4.53;;;2.00;;
48526;SDS011;34317;51.660;5.824;2023-04-24T06:45:42;3.50;;;1.90;;
48526;SDS011;34317;51.660;5.824;2023-04-24T06:48:10;2.53;;;1.92;;
48526;SDS011;34317;51.660;5.824;2023-04-24T06:50:38;3.08;;;1.98;;
48526;SDS011;34317;51.660;5.824;2023-04-24T06:53:05;3.10;;;1.65;;
48526;SDS011;34317;51.660;5.824;2023-04-24T06:55:32;2.45;;;1.55;;
48526;SDS011;34317;51.660;5.824;2023-04-24T06:57:59;2.67;;;1.35;;
48526;SDS011;34317;51.660;5.824;2023-04-24T07:00:27;1.52;;;1.20;;
48526;SDS011;34317;51.660;5.824;2023-04-24T07:02:54;2.60;;;1.15;;
48526;SDS011;34317;51.660;5.824;2023-04-24T07:05:22;1.50;;;1.23;;
48526;SDS011;34317;51.660;5.824;2023-04-24T07:07:50;1.38;;;1.00;;
48526;SDS011;34317;51.660;5.824;2023-04-24T07:10:18;1.50;;;1.08;;
48526;SDS011;34317;51.660;5.824;2023-04-24T07:12:46;1.58;;;1.20;;
48526;SDS011;34317;51.660;5.824;2023-04-24T07:15:13;2.80;;;0.98;;
48526;SDS011;34317;51.660;5.824;2023-04-24T07:17:40;0.95;;;0.80;;
48526;SDS011;34317;51.660;5.824;2023-04-24T07:20:10;1.05;;;0.93;;
48526;SDS011;34317;51.660;5.824;2023-04-24T07:22:38;1.00;;;0.80;;
48526;SDS011;34317;51.660;5.824;2023-04-24T07:25:06;2.58;;;0.85;;
48526;SDS011;34317;51.660;5.824;2023-04-24T07:27:34;2.65;;;1.10;;
48526;SDS011;34317;51.660;5.824;2023-04-24T07:30:03;2.85;;;1.13;;
48526;SDS011;34317;51.660;5.824;2023-04-24T07:32:31;1.60;;;1.50;;
48526;SDS011;34317;51.660;5.824;2023-04-24T07:34:58;2.33;;;1.70;;
48526;SDS011;34317;51.660;5.824;2023-04-24T07:37:25;2.45;;;2.00;;
48526;SDS011;34317;51.660;5.824;2023-04-24T07:39:53;3.35;;;2.60;;
48526;SDS011;34317;51.660;5.824;2023-04-24T07:42:20;4.10;;;3.10;;
48526;SDS011;34317;51.660;5.824;2023-04-24T07:44:47;6.32;;;4.03;;
48526;SDS011;34317;51.660;5.824;2023-04-24T07:47:14;9.15;;;4.82;;
48526;SDS011;34317;51.660;5.824;2023-04-24T07:49:42;7.75;;;5.28;;
48526;SDS011;34317;51.660;5.824;2023-04-24T07:52:10;11.75;;;5.70;;
48526;SDS011;34317;51.660;5.824;2023-04-24T07:54:40;11.02;;;6.20;;
48526;SDS011;34317;51.660;5.824;2023-04-24T07:57:08;11.68;;;6.78;;
48526;SDS011;34317;51.660;5.824;2023-04-24T07:59:36;13.68;;;7.50;;
48526;SDS011;34317;51.660;5.824;2023-04-24T08:02:03;8.75;;;6.53;;
48526;SDS011;34317;51.660;5.824;2023-04-24T08:04:30;12.55;;;6.80;;
48526;SDS011;34317;51.660;5.824;2023-04-24T08:06:58;10.70;;;6.53;;
48526;SDS011;34317;51.660;5.824;2023-04-24T08:09:25;10.60;;;6.22;;
48526;SDS011;34317;51.660;5.824;2023-04-24T08:11:53;13.48;;;6.88;;
48526;SDS011;34317;51.660;5.824;2023-04-24T08:14:21;13.05;;;6.85;;
48526;SDS011;34317;51.660;5.824;2023-04-24T08:16:58;13.35;;;6.90;;
48526;SDS011;34317;51.660;5.824;2023-04-24T08:19:32;11.32;;;5.90;;
48526;SDS011;34317;51.660;5.824;2023-04-24T08:22:00;12.45;;;5.88;;
48526;SDS011;34317;51.660;5.824;2023-04-24T08:24:27;12.30;;;6.68;;
48526;SDS011;34317;51.660;5.824;2023-04-24T08:26:55;10.40;;;5.97;;
48526;SDS011;34317;51.660;5.824;2023-04-24T08:29:25;11.18;;;5.03;;
48526;SDS011;34317;51.660;5.824;2023-04-24T08:31:58;12.05;;;5.30;;
48526;SDS011;34317;51.660;5.824;2023-04-24T08:34:26;14.90;;;5.50;;
48526;SDS011;34317;51.660;5.824;2023-04-24T08:36:55;13.07;;;5.72;;
48526;SDS011;34317;51.660;5.824;2023-04-24T08:39:23;13.75;;;4.93;;
48526;SDS011;34317;51.660;5.824;2023-04-24T08:41:51;11.45;;;4.63;;
48526;SDS011;34317;51.660;5.824;2023-04-24T08:44:19;10.85;;;4.47;;
48526;SDS011;34317;51.660;5.824;2023-04-24T08:46:48;16.40;;;5.85;;
48526;SDS011;34317;51.660;5.824;2023-04-24T08:49:16;17.27;;;6.03;;
48526;SDS011;34317;51.660;5.824;2023-04-24T08:51:46;12.02;;;4.97;;
48526;SDS011;34317;51.660;5.824;2023-04-24T08:54:14;12.70;;;4.50;;
48526;SDS011;34317;51.660;5.824;2023-04-24T08:56:43;12.00;;;3.85;;
48526;SDS011;34317;51.660;5.824;2023-04-24T08:59:12;10.18;;;3.78;;
48526;SDS011;34317;51.660;5.824;2023-04-24T09:01:40;12.07;;;3.67;;
48526;SDS011;34317;51.660;5.824;2023-04-24T09:04:09;13.00;;;3.60;;
48526;SDS011;34317;51.660;5.824;2023-04-24T09:06:38;15.13;;;3.60;;
48526;SDS011;34317;51.660;5.824;2023-04-24T09:09:05;9.00;;;3.42;;
48526;SDS011;34317;51.660;5.824;2023-04-24T09:11:34;8.88;;;3.47;;
48526;SDS011;34317;51.660;5.824;2023-04-24T09:14:01;9.35;;;3.22;;
48526;SDS011;34317;51.660;5.824;2023-04-24T09:16:30;15.77;;;3.80;;
48526;SDS011;34317;51.660;5.824;2023-04-24T09:19:02;16.45;;;3.63;;
48526;SDS011;34317;51.660;5.824;2023-04-24T09:21:33;11.57;;;3.30;;
48526;SDS011;34317;51.660;5.824;2023-04-24T09:24:04;13.48;;;2.83;;
48526;SDS011;34317;51.660;5.824;2023-04-24T09:26:34;19.33;;;3.42;;
48526;SDS011;34317;51.660;5.824;2023-04-24T09:29:03;9.30;;;3.03;;
48526;SDS011;34317;51.660;5.824;2023-04-24T09:31:31;12.05;;;3.08;;
48526;SDS011;34317;51.660;5.824;2023-04-24T09:34:03;9.88;;;2.95;;
48526;SDS011;34317;51.660;5.824;2023-04-24T09:36:35;12.35;;;2.65;;
48526;SDS011;34317;51.660;5.824;2023-04-24T09:39:05;16.63;;;3.65;;
48526;SDS011;34317;51.660;5.824;2023-04-24T09:44:14;11.82;;;3.10;;
48526;SDS011;34317;51.660;5.824;2023-04-24T09:46:44;11.18;;;3.00;;
48526;SDS011;34317;51.660;5.824;2023-04-24T09:49:16;10.70;;;2.40;;
48526;SDS011;34317;51.660;5.824;2023-04-24T09:51:47;9.05;;;2.50;;
48526;SDS011;34317;51.660;5.824;2023-04-24T09:54:15;7.90;;;2.65;;
48526;SDS011;34317;51.660;5.824;2023-04-24T09:56:44;9.82;;;2.67;;
48526;SDS011;34317;51.660;5.824;2023-04-24T09:59:17;9.27;;;2.45;;
48526;SDS011;34317;51.660;5.824;2023-04-24T10:01:45;8.40;;;2.70;;
48526;SDS011;34317;51.660;5.824;2023-04-24T10:04:18;6.72;;;2.33;;
48526;SDS011;34317;51.660;5.824;2023-04-24T10:06:47;10.27;;;2.83;;
48526;SDS011;34317;51.660;5.824;2023-04-24T10:09:16;7.07;;;2.17;;
48526;SDS011;34317;51.660;5.824;2023-04-24T10:11:46;9.07;;;2.22;;
48526;SDS011;34317;51.660;5.824;2023-04-24T10:14:16;9.10;;;2.40;;
48526;SDS011;34317;51.660;5.824;2023-04-24T10:16:45;4.85;;;2.00;;
48526;SDS011;34317;51.660;5.824;2023-04-24T10:19:15;8.52;;;2.13;;
48526;SDS011;34317;51.660;5.824;2023-04-24T10:21:45;9.18;;;2.38;;
48526;SDS011;34317;51.660;5.824;2023-04-24T10:24:14;7.50;;;2.05;;
48526;SDS011;34317;51.660;5.824;2023-04-24T10:26:43;8.93;;;2.50;;
48526;SDS011;34317;51.660;5.824;2023-04-24T10:29:12;7.97;;;2.55;;
48526;SDS011;34317;51.660;5.824;2023-04-24T10:31:42;11.85;;;2.40;;
48526;SDS011;34317;51.660;5.824;2023-04-24T10:34:14;9.02;;;2.80;;
48526;SDS011;34317;51.660;5.824;2023-04-24T10:36:47;9.32;;;2.38;;
48526;SDS011;34317;51.660;5.824;2023-04-24T10:39:17;9.48;;;2.67;;
48526;SDS011;34317;51.660;5.824;2023-04-24T10:41:55;8.18;;;2.55;;
48526;SDS011;34317;51.660;5.824;2023-04-24T10:44:25;9.00;;;2.80;;
48526;SDS011;34317;51.660;5.824;2023-04-24T10:47:03;8.77;;;2.10;;
48526;SDS011;34317;51.660;5.824;2023-04-24T10:49:31;7.95;;;2.42;;
48526;SDS011;34317;51.660;5.824;2023-04-24T10:52:02;9.05;;;2.22;;
48526;SDS011;34317;51.660;5.824;2023-04-24T10:54:36;9.38;;;2.22;;
48526;SDS011;34317;51.660;5.824;2023-04-24T11:00:09;6.10;;;1.70;;
48526;SDS011;34317;51.660;5.824;2023-04-24T11:02:45;4.55;;;1.63;;
48526;SDS011;34317;51.660;5.824;2023-04-24T11:05:18;4.25;;;1.20;;
48526;SDS011;34317;51.660;5.824;2023-04-24T11:10:47;7.15;;;1.48;;
48526;SDS011;34317;51.660;5.824;2023-04-24T11:13:22;4.82;;;1.60;;
48526;SDS011;34317;51.660;5.824;2023-04-24T11:19:00;8.80;;;1.60;;
48526;SDS011;34317;51.660;5.824;2023-04-24T11:21:39;4.05;;;1.20;;
48526;SDS011;34317;51.660;5.824;2023-04-24T11:24:23;3.83;;;1.58;;
48526;SDS011;34317;51.660;5.824;2023-04-24T11:29:45;3.30;;;1.10;;
48526;SDS011;34317;51.660;5.824;2023-04-24T11:32:15;4.72;;;1.50;;
48526;SDS011;34317;51.660;5.824;2023-04-24T11:35:02;8.45;;;1.52;;
48526;SDS011;34317;51.660;5.824;2023-04-24T11:37:40;3.70;;;1.30;;
48526;SDS011;34317;51.660;5.824;2023-04-24T11:40:13;2.67;;;1.02;;
48526;SDS011;34317;51.660;5.824;2023-04-24T11:42:52;3.33;;;1.08;;
48526;SDS011;34317;51.660;5.824;2023-04-24T11:45:25;2.17;;;1.10;;
48526;SDS011;34317;51.660;5.824;2023-04-24T11:47:54;3.30;;;1.00;;
48526;SDS011;34317;51.660;5.824;2023-04-24T11:50:23;1.88;;;1.10;;
48526;SDS011;34317;51.660;5.824;2023-04-24T11:52:57;2.13;;;1.13;;
48526;SDS011;34317;51.660;5.824;2023-04-24T11:55:25;6.07;;;1.20;;
48526;SDS011;34317;51.660;5.824;2023-04-24T11:57:58;2.13;;;1.15;;
48526;SDS011;34317;51.660;5.824;2023-04-24T12:00:27;4.13;;;1.20;;
48526;SDS011;34317;51.660;5.824;2023-04-24T12:03:11;5.53;;;1.20;;
48526;SDS011;34317;51.660;5.824;2023-04-24T12:05:39;2.55;;;1.05;;
48526;SDS011;34317;51.660;5.824;2023-04-24T12:08:07;4.40;;;1.20;;
48526;SDS011;34317;51.660;5.824;2023-04-24T12:10:34;4.75;;;1.20;;
48526;SDS011;34317;51.660;5.824;2023-04-24T12:13:02;4.85;;;1.08;;
48526;SDS011;34317;51.660;5.824;2023-04-24T12:15:30;5.53;;;1.30;;
48526;SDS011;34317;51.660;5.824;2023-04-24T12:17:57;2.95;;;1.30;;
48526;SDS011;34317;51.660;5.824;2023-04-24T12:20:28;3.75;;;1.40;;
48526;SDS011;34317;51.660;5.824;2023-04-24T12:22:57;3.90;;;1.50;;
48526;SDS011;34317;51.660;5.824;2023-04-24T12:25:27;5.95;;;1.65;;
48526;SDS011;34317;51.660;5.824;2023-04-24T12:30:33;7.20;;;1.75;;
48526;SDS011;34317;51.660;5.824;2023-04-24T12:33:02;6.60;;;1.65;;
48526;SDS011;34317;51.660;5.824;2023-04-24T12:35:31;9.43;;;1.60;;
48526;SDS011;34317;51.660;5.824;2023-04-24T12:38:10;4.30;;;1.60;;
48526;SDS011;34317;51.660;5.824;2023-04-24T12:40:41;7.22;;;1.80;;
48526;SDS011;34317;51.660;5.824;2023-04-24T12:43:16;5.40;;;1.38;;
48526;SDS011;34317;51.660;5.824;2023-04-24T12:45:45;5.43;;;1.55;;
48526;SDS011;34317;51.660;5.824;2023-04-24T12:48:14;7.47;;;1.67;;
48526;SDS011;34317;51.660;5.824;2023-04-24T12:50:43;5.10;;;1.30;;
48526;SDS011;34317;51.660;5.824;2023-04-24T12:53:13;7.38;;;1.52;;
48526;SDS011;34317;51.660;5.824;2023-04-24T12:55:41;6.10;;;1.70;;
48526;SDS011;34317;51.660;5.824;2023-04-24T12:58:08;4.30;;;1.83;;
48526;SDS011;34317;51.660;5.824;2023-04-24T13:00:36;6.38;;;1.48;;
48526;SDS011;34317;51.660;5.824;2023-04-24T13:03:04;5.40;;;1.42;;
48526;SDS011;34317;51.660;5.824;2023-04-24T13:05:32;7.75;;;1.80;;
48526;SDS011;34317;51.660;5.824;2023-04-24T13:07:59;5.47;;;1.63;;
48526;SDS011;34317;51.660;5.824;2023-04-24T13:10:27;4.13;;;1.60;;
48526;SDS011;34317;51.660;5.824;2023-04-24T13:12:54;6.65;;;1.80;;
48526;SDS011;34317;51.660;5.824;2023-04-24T13:15:22;3.47;;;1.75;;
48526;SDS011;34317;51.660;5.824;2023-04-24T13:17:50;7.85;;;1.73;;
48526;SDS011;34317;51.660;5.824;2023-04-24T13:20:18;2.13;;;1.20;;
48526;SDS011;34317;51.660;5.824;2023-04-24T13:22:45;3.90;;;1.60;;
48526;SDS011;34317;51.660;5.824;2023-04-24T13:25:12;3.30;;;1.30;;
48526;SDS011;34317;51.660;5.824;2023-04-24T13:27:39;3.75;;;1.42;;
48526;SDS011;34317;51.660;5.824;2023-04-24T13:30:07;3.75;;;1.10;;
48526;SDS011;34317;51.660;5.824;2023-04-24T13:32:34;3.08;;;1.30;;
48526;SDS011;34317;51.660;5.824;2023-04-24T13:35:02;5.25;;;1.13;;
48526;SDS011;34317;51.660;5.824;2023-04-24T13:37:29;5.80;;;1.27;;
48526;SDS011;34317;51.660;5.824;2023-04-24T13:39:56;10.82;;;1.67;;
48526;SDS011;34317;51.660;5.824;2023-04-24T13:42:23;3.80;;;1.40;;
48526;SDS011;34317;51.660;5.824;2023-04-24T13:44:51;3.60;;;1.27;;
48526;SDS011;34317;51.660;5.824;2023-04-24T13:47:19;2.83;;;1.20;;
48526;SDS011;34317;51.660;5.824;2023-04-24T13:49:46;3.60;;;1.45;;
48526;SDS011;34317;51.660;5.824;2023-04-24T13:52:13;4.20;;;1.60;;
48526;SDS011;34317;51.660;5.824;2023-04-24T13:54:40;4.95;;;1.73;;
48526;SDS011;34317;51.660;5.824;2023-04-24T13:57:08;4.85;;;1.77;;
48526;SDS011;34317;51.660;5.824;2023-04-24T13:59:35;4.55;;;1.60;;
48526;SDS011;34317;51.660;5.824;2023-04-24T14:02:02;3.75;;;1.58;;
48526;SDS011;34317;51.660;5.824;2023-04-24T14:04:29;4.85;;;1.70;;
48526;SDS011;34317;51.660;5.824;2023-04-24T14:06:57;2.78;;;1.50;;
48526;SDS011;34317;51.660;5.824;2023-04-24T14:09:24;3.78;;;1.58;;
48526;SDS011;34317;51.660;5.824;2023-04-24T14:11:51;4.80;;;1.60;;
48526;SDS011;34317;51.660;5.824;2023-04-24T14:14:19;5.13;;;1.70;;
48526;SDS011;34317;51.660;5.824;2023-04-24T14:16:46;4.22;;;1.40;;
48526;SDS011;34317;51.660;5.824;2023-04-24T14:19:13;3.42;;;1.30;;
48526;SDS011;34317;51.660;5.824;2023-04-24T14:21:40;2.88;;;1.33;;
48526;SDS011;34317;51.660;5.824;2023-04-24T14:24:07;5.50;;;1.60;;
48526;SDS011;34317;51.660;5.824;2023-04-24T14:26:35;5.32;;;1.27;;
48526;SDS011;34317;51.660;5.824;2023-04-24T14:29:02;2.42;;;1.40;;
48526;SDS011;34317;51.660;5.824;2023-04-24T14:31:41;4.65;;;1.60;;
48526;SDS011;34317;51.660;5.824;2023-04-24T14:34:08;4.70;;;1.70;;
48526;SDS011;34317;51.660;5.824;2023-04-24T14:36:36;3.28;;;1.60;;
48526;SDS011;34317;51.660;5.824;2023-04-24T14:39:03;3.30;;;1.60;;
48526;SDS011;34317;51.660;5.824;2023-04-24T14:41:34;4.55;;;1.60;;
48526;SDS011;34317;51.660;5.824;2023-04-24T14:44:03;4.28;;;1.77;;
48526;SDS011;34317;51.660;5.824;2023-04-24T14:46:30;5.55;;;1.95;;
48526;SDS011;34317;51.660;5.824;2023-04-24T14:48:57;4.55;;;2.00;;
48526;SDS011;34317;51.660;5.824;2023-04-24T14:51:24;4.47;;;1.98;;
48526;SDS011;34317;51.660;5.824;2023-04-24T14:53:52;5.28;;;2.17;;
48526;SDS011;34317;51.660;5.824;2023-04-24T14:56:19;5.85;;;2.42;;
48526;SDS011;34317;51.660;5.824;2023-04-24T14:58:46;6.82;;;2.17;;
48526;SDS011;34317;51.660;5.824;2023-04-24T15:01:14;3.17;;;2.00;;
48526;SDS011;34317;51.660;5.824;2023-04-24T15:03:43;6.25;;;1.88;;
48526;SDS011;34317;51.660;5.824;2023-04-24T15:06:12;8.27;;;2.13;;
48526;SDS011;34317;51.660;5.824;2023-04-24T15:08:39;4.05;;;1.98;;
48526;SDS011;34317;51.660;5.824;2023-04-24T15:11:06;5.82;;;2.20;;